Time;durP1;ratioP1;P1;durP2;ratioP2;P2;SDS_P1;SDS_P2;PMS_P1;PMS_P2;Temp;Humidity;BMP_temperature;BMP_pressure;BME280_temperature;BME280_humidity;BME280_pressure;Samples;Min_cycle;Max_cycle;Signal;HPM_P1;HPM_P2
2023/10/20 00:00:34;;;;;;;12.67;7.93;;;;;;;;;;5070608;28;20204;-76
2023/10/20 00:03:02;;;;;;;8.97;7.40;;;;;;;;;;5070631;28;20223;-76
2023/10/20 00:05:28;;;;;;;7.50;6.70;;;;;;;;;;5070613;28;20203;-76
2023/10/20 00:07:55;;;;;;;8.53;6.80;;;;;;;;;;5070537;28;20287;-76
2023/10/20 00:10:24;;;;;;;5.37;4.87;;;;;;;;;;5070602;28;20240;-76
2023/10/20 00:12:50;;;;;;;5.83;5.27;;;;;;;;;;5070480;28;20387;-76
2023/10/20 00:15:17;;;;;;;6.57;5.97;;;;;;;;;;5069404;28;20314;-76
2023/10/20 00:21:05;;;;;;;34.07;21.50;;;;;;;;;;5048375;28;20254;-76
2023/10/20 00:23:32;;;;;;;32.67;24.27;;;;;;;;;;5052894;28;20590;-77
2023/10/20 00:26:01;;;;;;;11.43;9.70;;;;;;;;;;5061778;28;20208;-76
2023/10/20 00:28:28;;;;;;;6.03;5.50;;;;;;;;;;5061558;28;20224;-76
2023/10/20 00:30:55;;;;;;;6.17;5.57;;;;;;;;;;5060733;28;20248;-76
2023/10/20 00:33:22;;;;;;;5.20;4.73;;;;;;;;;;5061529;28;20205;-76
2023/10/20 00:35:49;;;;;;;6.40;5.07;;;;;;;;;;5061388;28;20210;-76
2023/10/20 00:38:16;;;;;;;5.83;5.23;;;;;;;;;;5061259;28;20201;-76
2023/10/20 00:40:48;;;;;;;5.83;5.23;;;;;;;;;;5061026;28;20209;-76
2023/10/20 00:43:17;;;;;;;7.03;4.97;;;;;;;;;;5068013;28;20711;-77
2023/10/20 00:45:44;;;;;;;5.47;4.93;;;;;;;;;;5064874;28;20587;-76
2023/10/20 00:48:12;;;;;;;5.70;5.20;;;;;;;;;;5066387;28;20680;-76
2023/10/20 00:50:39;;;;;;;6.67;5.07;;;;;;;;;;5060031;28;20238;-77
2023/10/20 00:53:07;;;;;;;6.97;5.03;;;;;;;;;;5065404;28;20228;-76
2023/10/20 00:55:34;;;;;;;9.50;8.60;;;;;;;;;;5064269;28;20617;-76
2023/10/20 00:58:01;;;;;;;7.90;6.50;;;;;;;;;;5065055;28;20274;-76
2023/10/20 01:00:29;;;;;;;6.67;6.03;;;;;;;;;;5064349;28;20630;-76
2023/10/20 01:02:57;;;;;;;6.10;5.40;;;;;;;;;;5064094;28;20689;-76
2023/10/20 01:05:24;;;;;;;7.77;7.03;;;;;;;;;;5063391;28;20642;-76
2023/10/20 01:07:51;;;;;;;6.60;6.00;;;;;;;;;;5062711;28;20197;-76
2023/10/20 01:10:18;;;;;;;5.93;5.30;;;;;;;;;;5063663;28;20225;-76
2023/10/20 01:12:45;;;;;;;5.67;5.07;;;;;;;;;;5065251;28;20198;-76
2023/10/20 01:15:14;;;;;;;7.80;5.67;;;;;;;;;;5062703;28;20593;-76
2023/10/20 01:17:42;;;;;;;5.97;5.40;;;;;;;;;;5064982;28;20197;-76
2023/10/20 01:20:11;;;;;;;5.53;4.90;;;;;;;;;;5064210;28;20707;-76
2023/10/20 01:22:37;;;;;;;7.47;5.20;;;;;;;;;;5064140;28;20319;-76
2023/10/20 01:25:06;;;;;;;5.23;4.73;;;;;;;;;;5061670;28;20206;-76
2023/10/20 01:27:33;;;;;;;6.10;5.50;;;;;;;;;;5064323;28;20571;-76
2023/10/20 01:29:59;;;;;;;5.77;5.17;;;;;;;;;;5063858;28;20213;-76
2023/10/20 01:32:26;;;;;;;5.50;4.97;;;;;;;;;;5063940;28;20201;-76
2023/10/20 01:34:53;;;;;;;4.80;4.33;;;;;;;;;;5064299;28;20221;-76
2023/10/20 01:37:20;;;;;;;7.47;4.77;;;;;;;;;;5064259;28;20635;-76
2023/10/20 01:39:47;;;;;;;5.80;5.30;;;;;;;;;;5064728;28;20653;-76
2023/10/20 01:42:15;;;;;;;5.47;4.93;;;;;;;;;;5064147;28;20222;-77
2023/10/20 01:44:42;;;;;;;5.40;4.77;;;;;;;;;;5066356;28;20225;-76
2023/10/20 01:47:09;;;;;;;6.07;5.43;;;;;;;;;;5063115;28;20749;-76
2023/10/20 01:49:36;;;;;;;5.43;5.00;;;;;;;;;;5065080;28;20232;-77
2023/10/20 01:52:03;;;;;;;6.90;5.83;;;;;;;;;;5063744;28;20225;-76
2023/10/20 01:54:29;;;;;;;6.10;5.57;;;;;;;;;;5063379;28;20197;-77
2023/10/20 01:56:56;;;;;;;5.33;4.83;;;;;;;;;;5061549;28;20204;-76
2023/10/20 01:59:24;;;;;;;6.20;5.43;;;;;;;;;;5064008;28;20768;-76
2023/10/20 02:01:51;;;;;;;6.60;5.43;;;;;;;;;;5061932;28;20206;-77
2023/10/20 02:04:18;;;;;;;6.20;5.60;;;;;;;;;;5060898;28;20224;-76
2023/10/20 02:06:45;;;;;;;6.77;5.57;;;;;;;;;;5063271;28;20197;-76
2023/10/20 02:09:12;;;;;;;5.30;4.80;;;;;;;;;;5060962;28;20567;-76
2023/10/20 02:11:39;;;;;;;5.93;5.43;;;;;;;;;;5060154;28;20221;-76
2023/10/20 02:14:06;;;;;;;5.77;5.27;;;;;;;;;;5062738;28;20197;-76
2023/10/20 02:16:34;;;;;;;6.70;5.03;;;;;;;;;;5063345;28;20212;-76
2023/10/20 02:19:01;;;;;;;6.20;5.57;;;;;;;;;;5062462;28;20201;-76
2023/10/20 02:21:26;;;;;;;7.30;5.33;;;;;;;;;;5061185;28;20232;-76
2023/10/20 02:23:53;;;;;;;6.30;5.70;;;;;;;;;;5061338;28;20205;-76
2023/10/20 02:26:21;;;;;;;5.40;4.83;;;;;;;;;;5060540;28;20201;-76
2023/10/20 02:28:48;;;;;;;5.73;5.20;;;;;;;;;;5061051;28;20595;-76
2023/10/20 02:31:17;;;;;;;5.47;4.97;;;;;;;;;;5061253;28;20313;-76
2023/10/20 02:33:45;;;;;;;5.47;4.97;;;;;;;;;;5063351;28;20202;-76
2023/10/20 02:36:16;;;;;;;8.97;6.13;;;;;;;;;;5066648;28;20208;-76
2023/10/20 02:38:43;;;;;;;8.17;6.47;;;;;;;;;;5063580;28;20224;-76
2023/10/20 02:41:10;;;;;;;8.07;7.13;;;;;;;;;;5061858;28;20209;-76
2023/10/20 02:43:37;;;;;;;7.90;6.23;;;;;;;;;;5064682;28;20699;-76
2023/10/20 02:46:04;;;;;;;7.77;5.83;;;;;;;;;;5066723;28;20288;-76
2023/10/20 02:48:30;;;;;;;7.50;6.73;;;;;;;;;;5063574;28;20202;-76
2023/10/20 02:50:59;;;;;;;6.37;5.77;;;;;;;;;;5062217;28;20233;-75
2023/10/20 02:53:25;;;;;;;7.93;6.63;;;;;;;;;;5054909;28;20703;-77
2023/10/20 02:55:52;;;;;;;6.33;5.27;;;;;;;;;;5065547;28;20217;-77
2023/10/20 02:58:19;;;;;;;7.53;5.83;;;;;;;;;;5061059;28;20631;-77
2023/10/20 03:00:50;;;;;;;5.33;4.83;;;;;;;;;;5062995;28;20209;-77
2023/10/20 03:03:17;;;;;;;6.23;5.67;;;;;;;;;;5060034;28;20208;-76
2023/10/20 03:05:45;;;;;;;5.80;5.30;;;;;;;;;;5061446;28;20575;-76
2023/10/20 03:08:13;;;;;;;5.63;5.07;;;;;;;;;;5061995;28;20193;-77
2023/10/20 03:10:40;;;;;;;6.10;5.50;;;;;;;;;;5062025;28;20253;-77
2023/10/20 03:13:07;;;;;;;5.60;5.13;;;;;;;;;;5061897;28;20212;-77
2023/10/20 03:15:33;;;;;;;4.63;4.23;;;;;;;;;;5061506;28;20204;-77
2023/10/20 03:18:00;;;;;;;7.07;6.00;;;;;;;;;;5063421;28;20190;-75
2023/10/20 03:20:30;;;;;;;5.47;4.97;;;;;;;;;;5062522;28;20256;-78
2023/10/20 03:22:56;;;;;;;5.60;5.07;;;;;;;;;;5061927;28;20193;-77
2023/10/20 03:25:26;;;;;;;5.67;5.17;;;;;;;;;;5061838;28;20652;-77
2023/10/20 03:27:52;;;;;;;5.27;4.87;;;;;;;;;;5063577;28;20203;-77
2023/10/20 03:30:19;;;;;;;5.50;5.07;;;;;;;;;;5061492;28;20205;-76
2023/10/20 03:32:48;;;;;;;5.37;4.87;;;;;;;;;;5062289;28;20193;-77
2023/10/20 03:35:16;;;;;;;6.43;5.83;;;;;;;;;;5059985;28;20619;-76
2023/10/20 03:37:43;;;;;;;5.47;4.97;;;;;;;;;;5065427;28;20591;-77
2023/10/20 03:40:13;;;;;;;6.57;5.10;;;;;;;;;;5061235;28;20189;-77
2023/10/20 03:42:43;;;;;;;6.07;5.47;;;;;;;;;;5063140;28;20197;-76
2023/10/20 03:45:10;;;;;;;5.90;5.40;;;;;;;;;;5059016;28;20224;-75
2023/10/20 03:47:39;;;;;;;5.60;5.10;;;;;;;;;;5063168;28;20213;-75
2023/10/20 03:50:14;;;;;;;6.50;5.83;;;;;;;;;;5063093;28;20666;-76
2023/10/20 03:52:42;;;;;;;6.67;4.93;;;;;;;;;;5059665;28;20228;-76
2023/10/20 03:55:13;;;;;;;8.87;5.53;;;;;;;;;;5061837;28;20645;-75
2023/10/20 03:57:41;;;;;;;7.57;5.93;;;;;;;;;;5058001;28;20260;-76
2023/10/20 04:00:20;;;;;;;6.57;5.13;;;;;;;;;;5063008;28;20643;-76
2023/10/20 04:02:48;;;;;;;5.30;4.80;;;;;;;;;;5063015;28;20200;-76
2023/10/20 04:05:16;;;;;;;6.90;5.87;;;;;;;;;;5061786;28;20198;-77
2023/10/20 04:07:43;;;;;;;6.63;6.03;;;;;;;;;;5056931;28;20205;-75
2023/10/20 04:10:10;;;;;;;6.40;5.80;;;;;;;;;;5064668;28;20193;-76
2023/10/20 04:12:39;;;;;;;5.97;5.37;;;;;;;;;;5062181;28;20320;-76
2023/10/20 04:15:09;;;;;;;7.50;6.50;;;;;;;;;;5060549;28;20236;-76
2023/10/20 04:17:38;;;;;;;6.07;5.47;;;;;;;;;;5064137;28;20198;-75
2023/10/20 04:20:15;;;;;;;6.60;5.97;;;;;;;;;;5065498;28;20194;-76
2023/10/20 04:22:43;;;;;;;6.63;5.93;;;;;;;;;;5062794;28;21151;-76
2023/10/20 04:25:13;;;;;;;5.67;5.13;;;;;;;;;;5066411;28;20255;-76
2023/10/20 04:27:45;;;;;;;6.93;6.30;;;;;;;;;;5063034;28;20277;-77
2023/10/20 04:52:53;;;;;;;16.17;10.33;;;;;;;;;;5073896;28;20672;-83
2023/10/20 04:58:04;;;;;;;14.73;11.53;;;;;;;;;;5064154;28;20290;-80
2023/10/20 05:00:42;;;;;;;21.53;16.53;;;;;;;;;;5067467;28;20212;-88
2023/10/20 05:03:29;;;;;;;18.17;15.17;;;;;;;;;;5065812;28;20232;-81
2023/10/20 05:06:05;;;;;;;9.90;8.67;;;;;;;;;;5059391;28;20216;-81
2023/10/20 05:08:32;;;;;;;8.00;6.90;;;;;;;;;;5064824;28;20346;-84
2023/10/20 05:10:59;;;;;;;7.07;6.23;;;;;;;;;;5073445;28;20189;-83
2023/10/20 05:13:26;;;;;;;6.23;4.90;;;;;;;;;;5073153;28;20630;-83
2023/10/20 05:15:53;;;;;;;7.20;6.20;;;;;;;;;;5072464;28;20236;-81
2023/10/20 05:18:20;;;;;;;5.67;5.17;;;;;;;;;;5072899;28;20258;-84
2023/10/20 05:20:47;;;;;;;6.80;5.83;;;;;;;;;;5072932;28;20201;-83
2023/10/20 05:23:15;;;;;;;8.90;7.40;;;;;;;;;;5069015;28;20288;-79
2023/10/20 05:25:47;;;;;;;7.47;6.77;;;;;;;;;;5065663;28;20214;-79
2023/10/20 05:28:15;;;;;;;7.83;6.97;;;;;;;;;;5066746;28;20259;-80
2023/10/20 05:30:43;;;;;;;9.10;7.93;;;;;;;;;;5073548;28;20399;-83
2023/10/20 05:33:11;;;;;;;10.17;8.10;;;;;;;;;;5072332;28;20282;-83
2023/10/20 05:35:39;;;;;;;10.83;7.67;;;;;;;;;;5073059;28;20255;-83
2023/10/20 05:38:05;;;;;;;8.60;6.67;;;;;;;;;;5067870;28;20218;-76
2023/10/20 05:40:35;;;;;;;9.13;7.00;;;;;;;;;;5063289;28;20217;-80
2023/10/20 05:43:03;;;;;;;8.87;7.10;;;;;;;;;;5068472;28;20212;-80
2023/10/20 05:45:32;;;;;;;8.17;7.33;;;;;;;;;;5073356;28;20256;-86
2023/10/20 05:48:01;;;;;;;10.50;7.70;;;;;;;;;;5070895;28;20231;-76
2023/10/20 05:50:28;;;;;;;11.27;7.60;;;;;;;;;;5062756;28;20635;-80
2023/10/20 05:52:55;;;;;;;10.30;9.20;;;;;;;;;;5064591;28;20315;-78
2023/10/20 05:55:22;;;;;;;10.27;9.03;;;;;;;;;;5054425;28;20205;-93
2023/10/20 05:57:51;;;;;;;12.80;8.63;;;;;;;;;;5071953;28;20664;-87
2023/10/20 06:00:20;;;;;;;9.87;8.27;;;;;;;;;;5061750;28;20216;-87
2023/10/20 06:02:47;;;;;;;11.83;9.93;;;;;;;;;;5061822;28;20202;-80
2023/10/20 06:05:14;;;;;;;15.23;10.00;;;;;;;;;;5066085;28;20695;-77
2023/10/20 06:07:42;;;;;;;12.83;10.07;;;;;;;;;;5071458;28;20675;-84
2023/10/20 06:10:11;;;;;;;11.80;9.97;;;;;;;;;;5072426;28;20205;-83
2023/10/20 06:12:38;;;;;;;12.17;9.23;;;;;;;;;;5064940;28;20252;-83
2023/10/20 06:15:09;;;;;;;9.30;8.33;;;;;;;;;;5048445;28;20201;-79
2023/10/20 06:17:36;;;;;;;11.33;8.13;;;;;;;;;;5072334;28;20209;-79
2023/10/20 06:20:06;;;;;;;11.00;8.17;;;;;;;;;;5058143;28;20221;-80
2023/10/20 06:22:33;;;;;;;13.93;10.20;;;;;;;;;;5071731;28;20201;-80
2023/10/20 06:25:00;;;;;;;9.80;8.60;;;;;;;;;;5072047;28;20675;-79
2023/10/20 06:27:27;;;;;;;9.90;7.90;;;;;;;;;;5071833;28;20247;-82
2023/10/20 06:29:57;;;;;;;9.87;8.33;;;;;;;;;;5071328;28;20205;-83
2023/10/20 06:32:31;;;;;;;10.87;8.50;;;;;;;;;;5072196;28;20229;-82
2023/10/20 06:35:00;;;;;;;10.80;7.60;;;;;;;;;;5071600;28;20648;-83
2023/10/20 06:37:35;;;;;;;11.13;8.77;;;;;;;;;;5071466;28;20254;-80
2023/10/20 06:40:03;;;;;;;9.33;7.47;;;;;;;;;;5071743;28;20215;-86
2023/10/20 06:42:31;;;;;;;10.90;7.67;;;;;;;;;;5071615;28;20197;-82
2023/10/20 06:44:57;;;;;;;9.37;7.60;;;;;;;;;;5071147;28;20205;-78
2023/10/20 06:47:25;;;;;;;9.87;7.87;;;;;;;;;;5071113;28;20213;-77
2023/10/20 06:49:52;;;;;;;9.00;6.70;;;;;;;;;;5071602;28;20258;-84
2023/10/20 06:52:20;;;;;;;12.13;6.63;;;;;;;;;;5071035;28;20726;-81
2023/10/20 06:54:48;;;;;;;8.10;6.83;;;;;;;;;;5071476;28;20197;-82
2023/10/20 06:57:16;;;;;;;7.83;7.10;;;;;;;;;;5064006;28;20202;-84
2023/10/20 06:59:43;;;;;;;9.80;5.77;;;;;;;;;;5062411;28;20204;-86
2023/10/20 07:02:09;;;;;;;16.90;9.03;;;;;;;;;;5057336;28;20205;-85
2023/10/20 07:04:38;;;;;;;11.73;7.33;;;;;;;;;;5070931;28;20201;-87
2023/10/20 07:07:11;;;;;;;7.63;6.90;;;;;;;;;;5070324;28;20201;-86
2023/10/20 07:09:38;;;;;;;10.07;6.00;;;;;;;;;;5071294;28;20287;-86
2023/10/20 07:12:06;;;;;;;15.50;6.60;;;;;;;;;;5071020;28;20731;-83
2023/10/20 07:14:33;;;;;;;13.50;6.73;;;;;;;;;;5071494;28;20227;-88
2023/10/20 07:17:03;;;;;;;7.97;6.17;;;;;;;;;;5070443;28;20581;-81
2023/10/20 07:19:31;;;;;;;10.03;5.93;;;;;;;;;;5070816;28;20212;-79
2023/10/20 07:22:00;;;;;;;9.33;5.63;;;;;;;;;;5044922;28;20205;-80
2023/10/20 07:24:27;;;;;;;5.47;4.93;;;;;;;;;;5058927;28;20201;-79
2023/10/20 07:26:54;;;;;;;4.73;4.27;;;;;;;;;;5066960;28;20244;-85
2023/10/20 07:29:21;;;;;;;4.63;4.23;;;;;;;;;;5070834;28;20196;-84
2023/10/20 07:31:48;;;;;;;4.50;4.10;;;;;;;;;;5070247;28;20229;-86
2023/10/20 07:34:15;;;;;;;5.13;4.63;;;;;;;;;;5069513;28;20212;-87
2023/10/20 07:36:42;;;;;;;5.37;4.97;;;;;;;;;;5050666;28;20215;-88
2023/10/20 07:39:16;;;;;;;5.17;4.67;;;;;;;;;;5065851;28;20300;-85
2023/10/20 07:41:43;;;;;;;6.17;5.57;;;;;;;;;;5070550;28;20202;-83
2023/10/20 07:44:11;;;;;;;5.20;4.70;;;;;;;;;;5067271;28;20221;-84
2023/10/20 07:46:37;;;;;;;6.53;5.23;;;;;;;;;;5060244;28;20203;-83
2023/10/20 07:49:05;;;;;;;6.40;5.80;;;;;;;;;;5070071;28;20219;-80
2023/10/20 07:51:31;;;;;;;5.17;4.77;;;;;;;;;;5069370;28;20205;-83
2023/10/20 07:53:58;;;;;;;9.40;5.63;;;;;;;;;;5051792;28;20229;-88
2023/10/20 07:56:26;;;;;;;5.33;4.93;;;;;;;;;;5070024;28;20204;-84
2023/10/20 07:58:53;;;;;;;5.50;5.03;;;;;;;;;;5062960;28;20212;-75
2023/10/20 08:01:20;;;;;;;5.67;5.07;;;;;;;;;;5060911;28;20211;-76
2023/10/20 08:03:48;;;;;;;6.27;4.73;;;;;;;;;;5061925;28;20737;-76
2023/10/20 08:06:15;;;;;;;5.57;5.07;;;;;;;;;;5060370;28;20769;-76
2023/10/20 08:08:42;;;;;;;5.40;4.90;;;;;;;;;;5062721;28;20223;-85
2023/10/20 08:11:09;;;;;;;4.90;4.47;;;;;;;;;;5064198;28;20205;-82
2023/10/20 08:13:38;;;;;;;6.07;5.53;;;;;;;;;;5062188;28;20243;-84
2023/10/20 08:16:06;;;;;;;8.10;5.93;;;;;;;;;;5067337;28;20216;-82
2023/10/20 08:18:34;;;;;;;8.47;5.77;;;;;;;;;;5056481;28;20318;-84
2023/10/20 08:21:05;;;;;;;8.03;6.00;;;;;;;;;;5057880;28;20279;-86
2023/10/20 08:23:33;;;;;;;8.43;6.37;;;;;;;;;;5043768;28;20208;-86
2023/10/20 08:25:59;;;;;;;7.10;6.40;;;;;;;;;;5062567;28;20262;-83
2023/10/20 08:28:27;;;;;;;9.37;6.70;;;;;;;;;;5057342;28;20212;-85
2023/10/20 08:31:06;;;;;;;7.97;7.27;;;;;;;;;;5070141;28;20216;-84
2023/10/20 08:33:33;;;;;;;6.83;6.07;;;;;;;;;;5049767;28;20252;-82
2023/10/20 08:36:01;;;;;;;7.97;6.60;;;;;;;;;;5063829;28;20297;-81
2023/10/20 08:38:28;;;;;;;8.33;6.90;;;;;;;;;;5059919;28;20638;-81
2023/10/20 08:40:55;;;;;;;7.53;6.83;;;;;;;;;;5070100;28;20213;-85
2023/10/20 08:43:22;;;;;;;8.20;6.77;;;;;;;;;;5070904;28;20227;-83
2023/10/20 08:45:49;;;;;;;7.00;6.30;;;;;;;;;;5070259;28;20198;-82
2023/10/20 08:48:17;;;;;;;6.93;6.30;;;;;;;;;;5070011;28;20197;-87
2023/10/20 08:50:45;;;;;;;7.00;6.30;;;;;;;;;;5070499;28;20707;-83
2023/10/20 08:53:13;;;;;;;6.73;6.13;;;;;;;;;;5056662;28;20228;-81
2023/10/20 08:55:40;;;;;;;8.83;7.23;;;;;;;;;;5070463;28;20205;-86
2023/10/20 08:58:07;;;;;;;8.47;5.20;;;;;;;;;;5043973;28;20205;-83
2023/10/20 09:00:34;;;;;;;8.50;6.27;;;;;;;;;;5056454;28;20218;-76
2023/10/20 09:03:01;;;;;;;7.73;6.93;;;;;;;;;;5069934;28;20205;-83
2023/10/20 09:05:29;;;;;;;7.73;6.90;;;;;;;;;;5072790;28;20579;-82
2023/10/20 09:07:57;;;;;;;7.27;6.50;;;;;;;;;;5065702;28;20201;-85
2023/10/20 09:10:24;;;;;;;7.93;6.93;;;;;;;;;;5068189;28;20285;-84
2023/10/20 09:12:51;;;;;;;9.80;7.83;;;;;;;;;;5073612;28;20686;-85
2023/10/20 09:15:18;;;;;;;9.07;7.57;;;;;;;;;;5071913;28;20259;-83
2023/10/20 09:17:46;;;;;;;9.40;7.30;;;;;;;;;;5062204;28;20296;-76
2023/10/20 09:20:14;;;;;;;8.67;6.63;;;;;;;;;;5059803;28;20249;-81
2023/10/20 09:22:42;;;;;;;8.70;7.87;;;;;;;;;;5073269;28;20227;-80
2023/10/20 09:25:10;;;;;;;9.27;6.63;;;;;;;;;;5072105;28;20201;-81
2023/10/20 09:27:37;;;;;;;9.77;6.33;;;;;;;;;;5073199;28;20202;-80
2023/10/20 09:30:08;;;;;;;7.60;6.90;;;;;;;;;;5064656;28;20201;-81
2023/10/20 09:32:36;;;;;;;9.27;6.77;;;;;;;;;;5072612;28;20894;-82
2023/10/20 09:35:03;;;;;;;8.90;7.60;;;;;;;;;;5073308;28;20197;-84
2023/10/20 09:37:30;;;;;;;7.60;6.90;;;;;;;;;;5072982;28;20216;-84
2023/10/20 09:40:06;;;;;;;7.80;7.00;;;;;;;;;;5059668;28;20209;-87
2023/10/20 09:42:54;;;;;;;7.43;6.73;;;;;;;;;;5060272;28;20668;-88
2023/10/20 09:45:23;;;;;;;8.77;7.50;;;;;;;;;;5052921;28;20211;-84
2023/10/20 09:47:53;;;;;;;9.93;6.33;;;;;;;;;;5072902;28;20737;-86
2023/10/20 09:50:22;;;;;;;18.50;7.23;;;;;;;;;;5073429;28;20239;-85
2023/10/20 09:52:50;;;;;;;9.07;6.50;;;;;;;;;;5056542;28;20316;-86
2023/10/20 09:55:22;;;;;;;7.90;6.63;;;;;;;;;;5063209;28;20727;-81
2023/10/20 09:57:50;;;;;;;11.13;7.80;;;;;;;;;;5072645;28;20201;-84
2023/10/20 10:00:30;;;;;;;13.90;7.60;;;;;;;;;;5061683;28;20224;-84
2023/10/20 10:02:57;;;;;;;10.43;8.07;;;;;;;;;;5072477;28;20235;-86
2023/10/20 10:05:24;;;;;;;11.27;7.63;;;;;;;;;;5072425;28;20595;-86
2023/10/20 10:08:03;;;;;;;8.53;7.57;;;;;;;;;;5072704;28;20208;-86
2023/10/20 10:10:32;;;;;;;9.03;8.03;;;;;;;;;;5057337;28;20636;-85
2023/10/20 10:13:01;;;;;;;10.00;7.63;;;;;;;;;;5061149;28;20699;-84
2023/10/20 10:15:37;;;;;;;9.73;7.13;;;;;;;;;;5072230;28;20209;-81
2023/10/20 10:18:10;;;;;;;8.77;7.70;;;;;;;;;;5072230;28;20200;-86
2023/10/20 10:20:42;;;;;;;10.27;7.40;;;;;;;;;;5065828;28;20296;-76
2023/10/20 10:23:11;;;;;;;6.03;5.43;;;;;;;;;;5061345;28;20197;-75
2023/10/20 10:25:41;;;;;;;11.33;8.07;;;;;;;;;;5056054;28;20672;-75
2023/10/20 10:28:16;;;;;;;9.83;7.17;;;;;;;;;;5064907;28;20672;-75
2023/10/20 10:30:45;;;;;;;10.87;6.80;;;;;;;;;;5062307;28;20216;-75
2023/10/20 10:33:12;;;;;;;8.50;6.47;;;;;;;;;;5066778;28;20225;-75
2023/10/20 10:35:40;;;;;;;10.63;7.07;;;;;;;;;;5060908;28;20193;-75
2023/10/20 10:38:18;;;;;;;12.07;6.77;;;;;;;;;;5054092;28;20288;-75
2023/10/20 10:40:46;;;;;;;11.30;6.87;;;;;;;;;;5069166;28;20743;-75
2023/10/20 10:43:15;;;;;;;7.57;6.53;;;;;;;;;;5066504;28;20336;-75
2023/10/20 10:45:43;;;;;;;8.33;6.43;;;;;;;;;;5066620;28;20232;-76
2023/10/20 10:48:12;;;;;;;10.20;7.73;;;;;;;;;;5064356;28;20211;-75
2023/10/20 10:50:40;;;;;;;13.13;7.97;;;;;;;;;;5060026;28;20229;-76
2023/10/20 10:53:07;;;;;;;9.60;6.27;;;;;;;;;;5051787;28;20218;-77
2023/10/20 10:55:35;;;;;;;8.37;6.80;;;;;;;;;;5064089;28;20259;-76
2023/10/20 10:58:05;;;;;;;8.87;7.30;;;;;;;;;;5051405;28;20293;-78
2023/10/20 11:00:32;;;;;;;8.27;6.50;;;;;;;;;;5052065;28;20669;-81
2023/10/20 11:03:00;;;;;;;6.87;6.17;;;;;;;;;;5058870;28;20185;-78
2023/10/20 11:05:28;;;;;;;7.57;6.40;;;;;;;;;;5071191;28;20258;-77
2023/10/20 11:07:57;;;;;;;7.73;6.70;;;;;;;;;;5070963;28;20205;-79
2023/10/20 11:10:26;;;;;;;9.87;6.90;;;;;;;;;;5070759;28;20254;-78
2023/10/20 11:12:53;;;;;;;11.17;6.20;;;;;;;;;;5071356;28;20201;-74
2023/10/20 11:15:22;;;;;;;10.43;6.47;;;;;;;;;;5070662;28;20214;-78
2023/10/20 11:17:49;;;;;;;7.90;6.20;;;;;;;;;;5070557;28;20196;-82
2023/10/20 11:20:19;;;;;;;13.30;7.77;;;;;;;;;;5070646;28;20197;-76
2023/10/20 11:22:46;;;;;;;9.23;6.40;;;;;;;;;;5070886;28;20200;-77
2023/10/20 11:25:19;;;;;;;7.93;6.30;;;;;;;;;;5070438;28;20676;-77
2023/10/20 11:27:46;;;;;;;6.80;6.20;;;;;;;;;;5069038;28;20658;-76
2023/10/20 11:30:14;;;;;;;9.27;6.33;;;;;;;;;;5065084;28;20202;-81
2023/10/20 11:32:42;;;;;;;9.03;5.33;;;;;;;;;;5062961;28;20201;-74
2023/10/20 11:35:09;;;;;;;5.70;5.07;;;;;;;;;;5069439;28;20633;-79
2023/10/20 11:37:36;;;;;;;5.27;4.77;;;;;;;;;;5068986;28;20205;-81
2023/10/20 11:40:04;;;;;;;6.77;6.00;;;;;;;;;;5066438;28;20198;-78
2023/10/20 11:42:32;;;;;;;5.90;4.13;;;;;;;;;;5061894;28;20684;-88
2023/10/20 11:44:58;;;;;;;5.70;4.50;;;;;;;;;;5070984;28;20197;-81
2023/10/20 11:47:25;;;;;;;6.93;4.97;;;;;;;;;;5059595;28;20209;-83
2023/10/20 11:49:54;;;;;;;9.57;5.93;;;;;;;;;;5068764;28;20719;-75
2023/10/20 11:52:22;;;;;;;7.50;5.03;;;;;;;;;;5070417;28;20205;-78
2023/10/20 11:54:50;;;;;;;7.77;4.43;;;;;;;;;;5068053;28;20221;-73
2023/10/20 11:57:17;;;;;;;4.27;3.87;;;;;;;;;;5070781;28;20217;-74
2023/10/20 11:59:44;;;;;;;4.07;3.77;;;;;;;;;;5070336;28;20209;-73
2023/10/20 12:02:11;;;;;;;5.83;5.33;;;;;;;;;;5070425;28;20205;-72
2023/10/20 12:04:38;;;;;;;6.83;5.13;;;;;;;;;;5064636;28;20605;-72
2023/10/20 12:07:06;;;;;;;6.13;5.33;;;;;;;;;;5067829;28;20675;-76
2023/10/20 12:09:33;;;;;;;7.50;5.43;;;;;;;;;;5070280;28;20201;-76
2023/10/20 12:12:00;;;;;;;6.77;4.83;;;;;;;;;;5060530;28;20671;-76
2023/10/20 12:14:27;;;;;;;5.63;4.40;;;;;;;;;;5070565;28;20243;-76
2023/10/20 12:16:54;;;;;;;8.67;4.37;;;;;;;;;;5067917;28;20275;-76
2023/10/20 12:19:21;;;;;;;9.83;5.97;;;;;;;;;;5069346;28;20278;-76
2023/10/20 12:21:48;;;;;;;12.47;6.07;;;;;;;;;;5068861;28;20228;-76
2023/10/20 12:24:16;;;;;;;4.90;4.40;;;;;;;;;;5068764;28;20559;-76
2023/10/20 12:26:43;;;;;;;6.63;3.90;;;;;;;;;;5068155;28;20216;-76
2023/10/20 12:29:10;;;;;;;5.00;4.33;;;;;;;;;;5068669;28;20205;-76
2023/10/20 12:31:37;;;;;;;9.37;4.33;;;;;;;;;;5069079;28;20658;-76
2023/10/20 12:34:05;;;;;;;7.03;3.73;;;;;;;;;;5070132;28;20228;-76
2023/10/20 12:36:33;;;;;;;4.33;3.93;;;;;;;;;;5069825;28;20288;-76
2023/10/20 12:39:00;;;;;;;7.30;3.90;;;;;;;;;;5072789;28;20216;-76
2023/10/20 12:41:29;;;;;;;5.47;3.70;;;;;;;;;;5073874;28;20205;-76
2023/10/20 12:43:56;;;;;;;4.30;3.10;;;;;;;;;;5073243;28;20676;-76
2023/10/20 12:46:23;;;;;;;9.23;3.90;;;;;;;;;;5061553;28;20205;-76
2023/10/20 12:48:50;;;;;;;4.63;3.87;;;;;;;;;;5073666;28;20209;-76
2023/10/20 12:51:17;;;;;;;3.70;3.20;;;;;;;;;;5073805;28;20231;-76
2023/10/20 12:53:44;;;;;;;4.67;3.63;;;;;;;;;;5073632;28;20591;-76
2023/10/20 12:56:10;;;;;;;3.60;3.30;;;;;;;;;;5072925;28;20205;-76
2023/10/20 12:58:39;;;;;;;7.43;4.00;;;;;;;;;;5073960;28;20205;-76
2023/10/20 13:01:06;;;;;;;5.07;4.00;;;;;;;;;;5073837;28;20200;-76
2023/10/20 13:03:33;;;;;;;6.50;3.40;;;;;;;;;;5074001;28;20266;-76
2023/10/20 13:06:00;;;;;;;5.13;3.30;;;;;;;;;;5073145;28;20288;-76
2023/10/20 13:08:27;;;;;;;5.57;3.77;;;;;;;;;;5074036;28;20212;-76
2023/10/20 13:10:54;;;;;;;4.23;3.83;;;;;;;;;;5073142;28;20669;-76
2023/10/20 13:13:23;;;;;;;6.30;3.40;;;;;;;;;;5073568;28;20213;-76
2023/10/20 13:15:52;;;;;;;5.23;3.70;;;;;;;;;;5072915;28;20237;-76
2023/10/20 13:18:18;;;;;;;8.00;3.33;;;;;;;;;;5072685;28;20316;-76
2023/10/20 13:20:45;;;;;;;4.37;3.10;;;;;;;;;;5073180;28;20208;-76
2023/10/20 13:23:13;;;;;;;9.27;3.63;;;;;;;;;;5073017;28;20208;-76
2023/10/20 13:25:39;;;;;;;5.43;3.30;;;;;;;;;;5072567;28;20242;-76
2023/10/20 13:28:06;;;;;;;7.67;3.80;;;;;;;;;;5073199;28;20612;-76
2023/10/20 13:30:33;;;;;;;6.53;3.90;;;;;;;;;;5047161;28;20650;-76
2023/10/20 13:33:03;;;;;;;7.20;3.63;;;;;;;;;;5072154;28;20212;-76
2023/10/20 13:35:31;;;;;;;3.93;3.63;;;;;;;;;;5072631;28;20255;-76
2023/10/20 13:37:58;;;;;;;3.50;3.20;;;;;;;;;;5072501;28;20209;-76
2023/10/20 13:40:25;;;;;;;5.77;3.70;;;;;;;;;;5073421;28;20640;-76
2023/10/20 13:42:52;;;;;;;6.77;3.87;;;;;;;;;;5072848;28;20205;-76
2023/10/20 13:45:19;;;;;;;7.57;3.20;;;;;;;;;;5072961;28;20212;-76
2023/10/20 13:47:46;;;;;;;7.87;2.90;;;;;;;;;;5072256;28;20209;-76
2023/10/20 13:50:16;;;;;;;5.00;3.13;;;;;;;;;;5072182;28;20232;-76
2023/10/20 13:52:44;;;;;;;5.00;3.53;;;;;;;;;;5072798;28;20296;-76
2023/10/20 13:55:12;;;;;;;4.23;3.43;;;;;;;;;;5071990;28;20622;-76
2023/10/20 13:57:39;;;;;;;8.47;4.30;;;;;;;;;;5072138;28;20706;-76
2023/10/20 14:00:08;;;;;;;6.73;3.83;;;;;;;;;;5072642;28;20205;-77
2023/10/20 14:02:35;;;;;;;7.83;3.63;;;;;;;;;;5072596;28;20201;-76
2023/10/20 14:05:02;;;;;;;6.43;3.50;;;;;;;;;;5072802;28;20215;-76
2023/10/20 14:07:31;;;;;;;4.77;3.43;;;;;;;;;;5072402;28;20201;-76
2023/10/20 14:09:58;;;;;;;7.20;3.47;;;;;;;;;;5072400;28;20209;-76
2023/10/20 14:12:25;;;;;;;8.97;3.93;;;;;;;;;;5071854;28;20219;-76
2023/10/20 14:14:51;;;;;;;10.20;4.73;;;;;;;;;;5072289;28;20691;-76
2023/10/20 14:17:18;;;;;;;6.13;4.37;;;;;;;;;;5072017;28;20213;-75
2023/10/20 14:19:45;;;;;;;3.60;3.30;;;;;;;;;;5061321;28;20692;-76
2023/10/20 14:22:12;;;;;;;5.60;3.77;;;;;;;;;;5064404;28;20666;-76
2023/10/20 14:24:40;;;;;;;5.03;4.00;;;;;;;;;;5065574;28;20209;-76
2023/10/20 14:27:07;;;;;;;4.03;3.63;;;;;;;;;;5053252;28;20212;-77
2023/10/20 14:29:34;;;;;;;11.33;4.50;;;;;;;;;;5056073;28;20260;-77
2023/10/20 14:32:01;;;;;;;3.73;3.33;;;;;;;;;;5065344;28;20198;-77
2023/10/20 14:34:28;;;;;;;6.53;4.00;;;;;;;;;;5067478;28;20260;-75
2023/10/20 14:36:55;;;;;;;5.77;3.67;;;;;;;;;;5065815;28;20202;-76
2023/10/20 14:39:22;;;;;;;4.40;3.67;;;;;;;;;;5066880;28;20209;-76
2023/10/20 14:41:51;;;;;;;4.70;3.60;;;;;;;;;;5071436;28;20292;-75
2023/10/20 14:44:18;;;;;;;4.27;3.90;;;;;;;;;;5057783;28;20263;-76
2023/10/20 14:46:45;;;;;;;6.97;4.50;;;;;;;;;;5071247;28;20568;-76
2023/10/20 14:49:12;;;;;;;4.83;4.07;;;;;;;;;;5071600;28;20232;-76
2023/10/20 14:51:39;;;;;;;6.03;3.70;;;;;;;;;;5071336;28;20251;-76
2023/10/20 14:54:06;;;;;;;8.07;3.70;;;;;;;;;;5071219;28;20215;-76
2023/10/20 14:56:33;;;;;;;6.67;3.90;;;;;;;;;;5071668;28;20232;-76
2023/10/20 14:59:02;;;;;;;10.63;4.67;;;;;;;;;;5069607;28;20282;-76
2023/10/20 15:01:29;;;;;;;5.80;3.80;;;;;;;;;;5071068;28;20213;-76
2023/10/20 15:03:56;;;;;;;19.70;9.37;;;;;;;;;;5071274;28;20197;-76
2023/10/20 15:06:23;;;;;;;9.10;5.90;;;;;;;;;;5070832;28;20679;-76
2023/10/20 15:08:50;;;;;;;7.27;5.10;;;;;;;;;;5070632;28;20287;-76
2023/10/20 15:11:17;;;;;;;21.40;10.17;;;;;;;;;;5071362;28;20259;-76
2023/10/20 15:13:44;;;;;;;17.30;10.07;;;;;;;;;;5070156;28;20201;-76